Nearby METAR Reports

 

KSJC - San Jose, California, USA
Distance from station: NØ 14km
Oppdatert: 19/08/2019 01:53
Few Clouds
Few Clouds
 Vind fra SSV
Vind: SSV 28 km/h
Temperatur: 25°C
Duggpunkt: 13°C
Fuktighet: 47%
Barometer: 1010.5 hPa
Clouds: Few Clouds
Visibility: 16 km
Cloud details: Few Clouds 305 m
Few Clouds 488 m
Few Clouds 2438 m
2019/08/18 23:53 KSJC 182353Z 20015KT 10SM FEW010 FEW016 FEW080 25/13 A2984 RMK AO2 SLP105 T02500133 10261 20222 56010 $
KNUQ - Moffett Nas/Mtn, California, USA
Distance from station: N 14km
Oppdatert: 19/08/2019 01:56
Klart
Klart
 Vind fra NNØ
Vind: NNØ 9 km/h
Temperatur: 28°C
Heat Index: 28°C
Duggpunkt: 14°C
Fuktighet: 42%
Barometer: 1010.5 hPa
Clouds: Klart
Visibility: 16 km
2019/08/18 23:56 KNUQ 182356Z 02005KT 10SM CLR 28/14 A2984 RMK AO2 SLP107 T02780144 10283 20222 56010
 
KPAO - Palo Alto, California, USA
Distance from station: NNV 23km
Oppdatert: 19/08/2019 01:47
Klart
Klart
 Vind fra VSV
Vind: VSV 22 km/h, Vindkast: 33 km/h
Temperatur: 26°C
Duggpunkt: 14°C
Fuktighet: 48%
Barometer: 1010.5 hPa
Clouds: Klart
Visibility: 16 km
2019/08/18 23:47 KPAO 182347Z 25012G18KT 10SM SKC 26/14 A2984
KRHV - San Jose/Reid, California, USA
Distance from station: ØNØ 19km
Oppdatert: 19/08/2019 01:47
Klart
Klart
 Vind fra V
Vind: V 17 km/h
Temperatur: 25°C
Duggpunkt: 14°C
Fuktighet: 51%
Barometer: 1010.8 hPa
Clouds: Klart
Visibility: 16 km
2019/08/18 23:47 KRHV 182347Z 26009KT 10SM SKC 25/14 A2985
 
KOAK - Oakland, California, USA
Distance from station: NNV 50km
Oppdatert: 19/08/2019 01:53
Few Clouds
Few Clouds
 Vind fra VSV
Vind: VSV 28 km/h
Temperatur: 23°C
Duggpunkt: 14°C
Fuktighet: 57%
Barometer: 1011.5 hPa
Clouds: Few Clouds
Visibility: 16 km
Cloud details: Few Clouds 305 m
Few Clouds 7620 m
2019/08/18 23:53 KOAK 182353Z 24015KT 10SM FEW010 FEW250 23/14 A2987 RMK AO2 SLP113 T02280139 10244 20206 55006
KSQL - San Carlos Airpo, California, USA
Distance from station: NV 34km
Oppdatert: 19/08/2019 01:47
Klart
Klart
 Vind fra VSV
Vind: VSV 22 km/h, Vindkast: 30 km/h
Temperatur: 25°C
Duggpunkt: 14°C
Fuktighet: 51%
Barometer: 1010.8 hPa
Clouds: Klart
Visibility: 16 km
2019/08/18 23:47 KSQL 182347Z 24012G16KT 10SM SKC 25/14 A2985
 
KSFO - San Francisco, California, USA
Distance from station: NV 49km
Oppdatert: 19/08/2019 01:56
Few Clouds
Few Clouds
 Vind fra SSV
Vind: SSV 35 km/h, Vindkast: 44 km/h
Temperatur: 22°C
Duggpunkt: 13°C
Fuktighet: 57%
Barometer: 1011.2 hPa
Clouds: Few Clouds
Visibility: 16 km
Cloud details: Few Clouds 457 m
2019/08/18 23:56 KSFO 182356Z 21019G24KT 10SM FEW015 22/13 A2986 RMK AO2 SLP111 T02170128 10239 20206 56007
KE16 - San Martin, California, USA
Distance from station: ØSØ 43km
Oppdatert: 05/08/2019 19:10
NOT Current
Klart
Klart
 Vind fra ØSØ
Vind: ØSØ 19 km/h
Temperatur: 19°C
Duggpunkt: 14°C
Fuktighet: 73%
Barometer: 1016.9 hPa
Clouds: Klart
Visibility: 16 km
2019/08/05 17:10 KE16 051710Z AUTO 12010KT 10SM CLR 19/14 A3003 RMK AO2
 
KWVI - Watsonville, California, USA
Distance from station: SSØ 44km
Oppdatert: 19/08/2019 01:53
Hovedsaklig skyet
Hovedsaklig skyet
 Vind fra V
Vind: V 17 km/h
Temperatur: 19°C
Duggpunkt: 14°C
Fuktighet: 73%
Barometer: 1013.9 hPa
Clouds: Hovedsaklig skyet
Visibility: 16 km
Cloud details: Hovedsaklig skyet 366 m
Hovedsaklig skyet 610 m
2019/08/18 23:53 KWVI 182353Z AUTO 27009KT 10SM BKN012 BKN020 19/14 A2994 RMK AO2 SLP137 T01940139 10211 20178 55005
KHAF - Half Moon Bay, California, USA
Distance from station: VNV 50km
Oppdatert: 19/08/2019 02:00
Hovedsaklig skyet
Hovedsaklig skyet
 Vind fra SV
Vind: SV 11 km/h
Temperatur: 16°C
Duggpunkt: 13°C
Fuktighet: 83%
Barometer: 1013.5 hPa
Clouds: Hovedsaklig skyet
Visibility: 14 km
Cloud details: Hovedsaklig skyet 396 m
2019/08/19 00:00 KHAF 190000Z AUTO 22006KT 9SM BKN013 16/13 A2993 RMK AO2
 
KHWD - Hayward, California, USA
Distance from station: N 44km
Oppdatert: 19/08/2019 01:54
Klart
Klart
 Vind fra V
Vind: V 24 km/h
Temperatur: 23°C
Duggpunkt: 14°C
Fuktighet: 57%
Barometer: 1011.2 hPa
Clouds: Klart
Visibility: 16 km
2019/08/18 23:54 KHWD 182354Z 26013KT 10SM CLR 23/14 A2986 RMK AO2 SLP120 T02280144 10244 20211 56005
KLVK - Livermore, California, USA
Distance from station: NNØ 51km
Oppdatert: 19/08/2019 01:53
Klart
Klart
 Vind fra VNV
Vind: VNV 22 km/h
Temperatur: 27°C
Heat Index: 27°C
Duggpunkt: 14°C
Fuktighet: 45%
Barometer: 1009.8 hPa
Clouds: Klart
Visibility: 16 km
2019/08/18 23:53 KLVK 182353Z 30012KT 10SM CLR 27/14 A2982 RMK AO2 SLP096 T02670139 10289 20228 56007 $